sensor_id;sensor_type;location;lat;lon;timestamp;temperature;humidity
32217;DHT22;67098;51.140;4.088;2023-12-20T00:01:01;9.30;98.90
32217;DHT22;67098;51.140;4.088;2023-12-20T00:03:27;9.30;98.80
32217;DHT22;67098;51.140;4.088;2023-12-20T00:05:52;9.30;98.80
32217;DHT22;67098;51.140;4.088;2023-12-20T00:08:18;9.30;98.70
32217;DHT22;67098;51.140;4.088;2023-12-20T00:10:44;9.20;98.80
32217;DHT22;67098;51.140;4.088;2023-12-20T00:13:10;9.10;98.80
32217;DHT22;67098;51.140;4.088;2023-12-20T00:15:36;9.10;98.90
32217;DHT22;67098;51.140;4.088;2023-12-20T00:18:02;9.10;99.00
32217;DHT22;67098;51.140;4.088;2023-12-20T00:20:28;9.10;99.10
32217;DHT22;67098;51.140;4.088;2023-12-20T00:22:56;9.10;99.10
32217;DHT22;67098;51.140;4.088;2023-12-20T00:25:23;9.00;99.10
32217;DHT22;67098;51.140;4.088;2023-12-20T00:27:49;9.00;99.10
32217;DHT22;67098;51.140;4.088;2023-12-20T00:30:15;9.00;99.10
32217;DHT22;67098;51.140;4.088;2023-12-20T00:32:41;9.00;99.20
32217;DHT22;67098;51.140;4.088;2023-12-20T00:35:13;9.00;99.30
32217;DHT22;67098;51.140;4.088;2023-12-20T00:37:39;8.90;99.60
32217;DHT22;67098;51.140;4.088;2023-12-20T00:40:05;8.80;99.70
32217;DHT22;67098;51.140;4.088;2023-12-20T00:42:31;8.80;99.80
32217;DHT22;67098;51.140;4.088;2023-12-20T00:44:56;8.80;99.90
32217;DHT22;67098;51.140;4.088;2023-12-20T00:47:22;8.80;99.80
32217;DHT22;67098;51.140;4.088;2023-12-20T00:49:48;8.90;99.70
32217;DHT22;67098;51.140;4.088;2023-12-20T00:52:13;8.80;99.70
32217;DHT22;67098;51.140;4.088;2023-12-20T00:54:39;8.90;99.60
32217;DHT22;67098;51.140;4.088;2023-12-20T00:57:05;8.90;99.50
32217;DHT22;67098;51.140;4.088;2023-12-20T00:59:30;9.00;99.30
32217;DHT22;67098;51.140;4.088;2023-12-20T01:01:56;9.00;99.30
32217;DHT22;67098;51.140;4.088;2023-12-20T01:04:22;8.90;99.30
32217;DHT22;67098;51.140;4.088;2023-12-20T01:06:47;8.90;99.30
32217;DHT22;67098;51.140;4.088;2023-12-20T01:09:13;8.90;99.30
32217;DHT22;67098;51.140;4.088;2023-12-20T01:11:39;8.80;99.30
32217;DHT22;67098;51.140;4.088;2023-12-20T01:14:04;8.90;99.30
32217;DHT22;67098;51.140;4.088;2023-12-20T01:16:30;8.90;99.10
32217;DHT22;67098;51.140;4.088;2023-12-20T01:18:56;8.80;99.20
32217;DHT22;67098;51.140;4.088;2023-12-20T01:21:21;8.80;99.30
32217;DHT22;67098;51.140;4.088;2023-12-20T01:23:47;8.80;99.40
32217;DHT22;67098;51.140;4.088;2023-12-20T01:26:12;8.80;99.50
32217;DHT22;67098;51.140;4.088;2023-12-20T01:28:40;8.80;99.40
32217;DHT22;67098;51.140;4.088;2023-12-20T01:31:05;8.80;99.40
32217;DHT22;67098;51.140;4.088;2023-12-20T01:33:31;8.80;99.80
32217;DHT22;67098;51.140;4.088;2023-12-20T01:35:57;8.80;99.90
32217;DHT22;67098;51.140;4.088;2023-12-20T01:38:22;8.80;99.90
32217;DHT22;67098;51.140;4.088;2023-12-20T01:40:48;8.70;99.90
32217;DHT22;67098;51.140;4.088;2023-12-20T01:43:14;8.80;99.90
32217;DHT22;67098;51.140;4.088;2023-12-20T01:45:40;8.80;99.90
32217;DHT22;67098;51.140;4.088;2023-12-20T01:48:06;8.80;99.90
32217;DHT22;67098;51.140;4.088;2023-12-20T01:50:36;8.90;99.90
32217;DHT22;67098;51.140;4.088;2023-12-20T01:53:02;9.00;99.90
32217;DHT22;67098;51.140;4.088;2023-12-20T01:55:31;9.00;99.90
32217;DHT22;67098;51.140;4.088;2023-12-20T01:57:57;9.00;99.90
32217;DHT22;67098;51.140;4.088;2023-12-20T02:00:24;9.00;99.90
32217;DHT22;67098;51.140;4.088;2023-12-20T02:02:53;9.00;99.90
32217;DHT22;67098;51.140;4.088;2023-12-20T02:05:19;9.00;99.90
32217;DHT22;67098;51.140;4.088;2023-12-20T02:07:45;9.10;99.90
32217;DHT22;67098;51.140;4.088;2023-12-20T02:10:11;9.10;99.90
32217;DHT22;67098;51.140;4.088;2023-12-20T02:12:37;9.10;99.90
32217;DHT22;67098;51.140;4.088;2023-12-20T02:15:04;9.20;99.90
32217;DHT22;67098;51.140;4.088;2023-12-20T02:17:31;9.10;99.90
32217;DHT22;67098;51.140;4.088;2023-12-20T02:19:57;9.00;99.90
32217;DHT22;67098;51.140;4.088;2023-12-20T02:22:23;9.10;99.90
32217;DHT22;67098;51.140;4.088;2023-12-20T02:24:48;9.20;99.90
32217;DHT22;67098;51.140;4.088;2023-12-20T02:27:15;9.10;99.90
32217;DHT22;67098;51.140;4.088;2023-12-20T02:29:43;9.10;99.90
32217;DHT22;67098;51.140;4.088;2023-12-20T02:32:08;9.00;99.90
32217;DHT22;67098;51.140;4.088;2023-12-20T02:34:34;9.00;99.90
32217;DHT22;67098;51.140;4.088;2023-12-20T02:37:00;9.00;99.90
32217;DHT22;67098;51.140;4.088;2023-12-20T02:39:25;9.10;99.90
32217;DHT22;67098;51.140;4.088;2023-12-20T02:41:51;9.00;99.90
32217;DHT22;67098;51.140;4.088;2023-12-20T02:44:17;9.00;99.90
32217;DHT22;67098;51.140;4.088;2023-12-20T02:46:42;9.00;99.90
32217;DHT22;67098;51.140;4.088;2023-12-20T02:49:08;9.00;99.90
32217;DHT22;67098;51.140;4.088;2023-12-20T02:51:34;8.90;99.90
32217;DHT22;67098;51.140;4.088;2023-12-20T02:53:59;9.00;99.90
32217;DHT22;67098;51.140;4.088;2023-12-20T02:56:25;9.00;99.90
32217;DHT22;67098;51.140;4.088;2023-12-20T02:58:51;8.90;99.90
32217;DHT22;67098;51.140;4.088;2023-12-20T03:01:16;8.90;99.90
32217;DHT22;67098;51.140;4.088;2023-12-20T03:03:42;8.90;99.90
32217;DHT22;67098;51.140;4.088;2023-12-20T03:06:08;9.00;99.90
32217;DHT22;67098;51.140;4.088;2023-12-20T03:08:33;9.10;99.90
32217;DHT22;67098;51.140;4.088;2023-12-20T03:10:59;9.00;99.90
32217;DHT22;67098;51.140;4.088;2023-12-20T03:13:25;9.00;99.90
32217;DHT22;67098;51.140;4.088;2023-12-20T03:15:51;9.00;99.90
32217;DHT22;67098;51.140;4.088;2023-12-20T03:18:16;9.00;99.90
32217;DHT22;67098;51.140;4.088;2023-12-20T03:20:43;8.90;99.90
32217;DHT22;67098;51.140;4.088;2023-12-20T03:23:09;9.00;99.90
32217;DHT22;67098;51.140;4.088;2023-12-20T03:25:35;9.00;99.90
32217;DHT22;67098;51.140;4.088;2023-12-20T03:28:00;9.10;99.90
32217;DHT22;67098;51.140;4.088;2023-12-20T03:30:26;9.00;99.90
32217;DHT22;67098;51.140;4.088;2023-12-20T03:32:52;9.00;99.90
32217;DHT22;67098;51.140;4.088;2023-12-20T03:35:17;8.90;99.90
32217;DHT22;67098;51.140;4.088;2023-12-20T03:37:43;8.80;99.90
32217;DHT22;67098;51.140;4.088;2023-12-20T03:40:09;8.80;99.90
32217;DHT22;67098;51.140;4.088;2023-12-20T03:42:35;8.80;99.90
32217;DHT22;67098;51.140;4.088;2023-12-20T03:45:01;8.80;99.90
32217;DHT22;67098;51.140;4.088;2023-12-20T03:47:26;8.90;99.90
32217;DHT22;67098;51.140;4.088;2023-12-20T03:49:53;9.00;99.90
32217;DHT22;67098;51.140;4.088;2023-12-20T03:52:18;9.10;99.90
32217;DHT22;67098;51.140;4.088;2023-12-20T03:54:44;9.10;99.90
32217;DHT22;67098;51.140;4.088;2023-12-20T03:57:10;9.10;99.90
32217;DHT22;67098;51.140;4.088;2023-12-20T03:59:38;9.10;99.90
32217;DHT22;67098;51.140;4.088;2023-12-20T04:02:04;9.10;99.90
32217;DHT22;67098;51.140;4.088;2023-12-20T04:04:30;9.10;99.90
32217;DHT22;67098;51.140;4.088;2023-12-20T04:06:56;9.10;99.90
32217;DHT22;67098;51.140;4.088;2023-12-20T04:09:21;9.10;99.90
32217;DHT22;67098;51.140;4.088;2023-12-20T04:11:47;9.20;99.90
32217;DHT22;67098;51.140;4.088;2023-12-20T04:14:12;9.10;99.90
32217;DHT22;67098;51.140;4.088;2023-12-20T04:16:38;9.10;99.90
32217;DHT22;67098;51.140;4.088;2023-12-20T04:19:04;9.10;99.90
32217;DHT22;67098;51.140;4.088;2023-12-20T04:21:30;9.10;99.90
32217;DHT22;67098;51.140;4.088;2023-12-20T04:23:56;9.10;99.90
32217;DHT22;67098;51.140;4.088;2023-12-20T04:26:22;9.20;99.90
32217;DHT22;67098;51.140;4.088;2023-12-20T04:28:47;9.30;99.90
32217;DHT22;67098;51.140;4.088;2023-12-20T04:31:13;9.20;99.90
32217;DHT22;67098;51.140;4.088;2023-12-20T04:33:39;9.30;99.90
32217;DHT22;67098;51.140;4.088;2023-12-20T04:36:05;9.40;99.90
32217;DHT22;67098;51.140;4.088;2023-12-20T04:38:30;9.30;99.90
32217;DHT22;67098;51.140;4.088;2023-12-20T04:40:56;9.40;99.90
32217;DHT22;67098;51.140;4.088;2023-12-20T04:43:22;9.40;99.90
32217;DHT22;67098;51.140;4.088;2023-12-20T04:45:48;9.40;99.90
32217;DHT22;67098;51.140;4.088;2023-12-20T04:48:13;9.20;99.90
32217;DHT22;67098;51.140;4.088;2023-12-20T04:50:39;9.20;99.90
32217;DHT22;67098;51.140;4.088;2023-12-20T04:53:05;9.10;99.90
32217;DHT22;67098;51.140;4.088;2023-12-20T04:55:30;9.10;99.90
32217;DHT22;67098;51.140;4.088;2023-12-20T04:57:56;9.10;99.90
32217;DHT22;67098;51.140;4.088;2023-12-20T05:00:22;9.00;99.90
32217;DHT22;67098;51.140;4.088;2023-12-20T05:02:48;9.00;99.90
32217;DHT22;67098;51.140;4.088;2023-12-20T05:05:13;8.90;99.90
32217;DHT22;67098;51.140;4.088;2023-12-20T05:07:40;8.90;99.90
32217;DHT22;67098;51.140;4.088;2023-12-20T05:10:07;8.80;99.90
32217;DHT22;67098;51.140;4.088;2023-12-20T05:12:35;8.90;99.90
32217;DHT22;67098;51.140;4.088;2023-12-20T05:15:01;8.90;99.90
32217;DHT22;67098;51.140;4.088;2023-12-20T05:17:27;8.80;99.90
32217;DHT22;67098;51.140;4.088;2023-12-20T05:19:52;8.70;99.90
32217;DHT22;67098;51.140;4.088;2023-12-20T05:22:19;8.80;99.90
32217;DHT22;67098;51.140;4.088;2023-12-20T05:24:45;8.80;99.90
32217;DHT22;67098;51.140;4.088;2023-12-20T05:27:11;8.80;99.90
32217;DHT22;67098;51.140;4.088;2023-12-20T05:29:37;8.80;99.90
32217;DHT22;67098;51.140;4.088;2023-12-20T05:32:02;8.70;99.90
32217;DHT22;67098;51.140;4.088;2023-12-20T05:34:30;8.70;99.90
32217;DHT22;67098;51.140;4.088;2023-12-20T05:36:57;8.80;99.90
32217;DHT22;67098;51.140;4.088;2023-12-20T05:39:23;8.90;99.90
32217;DHT22;67098;51.140;4.088;2023-12-20T05:41:48;8.80;99.90
32217;DHT22;67098;51.140;4.088;2023-12-20T05:44:14;8.80;99.90
32217;DHT22;67098;51.140;4.088;2023-12-20T05:46:40;8.90;99.90
32217;DHT22;67098;51.140;4.088;2023-12-20T05:49:06;8.80;99.90
32217;DHT22;67098;51.140;4.088;2023-12-20T05:51:32;8.80;99.90
32217;DHT22;67098;51.140;4.088;2023-12-20T05:53:58;8.80;99.90
32217;DHT22;67098;51.140;4.088;2023-12-20T05:56:24;8.80;99.90
32217;DHT22;67098;51.140;4.088;2023-12-20T05:58:50;8.80;99.90
32217;DHT22;67098;51.140;4.088;2023-12-20T06:01:16;8.80;99.90
32217;DHT22;67098;51.140;4.088;2023-12-20T06:03:44;8.90;99.90
32217;DHT22;67098;51.140;4.088;2023-12-20T06:06:11;8.90;99.90
32217;DHT22;67098;51.140;4.088;2023-12-20T06:08:38;8.90;99.90
32217;DHT22;67098;51.140;4.088;2023-12-20T06:11:04;8.90;99.90
32217;DHT22;67098;51.140;4.088;2023-12-20T06:13:31;8.90;99.90
32217;DHT22;67098;51.140;4.088;2023-12-20T06:15:57;8.70;99.90
32217;DHT22;67098;51.140;4.088;2023-12-20T06:18:23;8.60;99.90
32217;DHT22;67098;51.140;4.088;2023-12-20T06:20:48;8.50;99.90
32217;DHT22;67098;51.140;4.088;2023-12-20T06:23:14;8.60;99.90
32217;DHT22;67098;51.140;4.088;2023-12-20T06:25:40;8.70;99.90
32217;DHT22;67098;51.140;4.088;2023-12-20T06:28:05;8.60;99.90
32217;DHT22;67098;51.140;4.088;2023-12-20T06:30:31;8.60;99.90
32217;DHT22;67098;51.140;4.088;2023-12-20T06:32:58;8.50;99.90
32217;DHT22;67098;51.140;4.088;2023-12-20T06:35:24;8.50;99.90
32217;DHT22;67098;51.140;4.088;2023-12-20T06:37:50;8.40;99.90
32217;DHT22;67098;51.140;4.088;2023-12-20T06:40:16;8.50;99.90
32217;DHT22;67098;51.140;4.088;2023-12-20T06:42:41;8.60;99.90
32217;DHT22;67098;51.140;4.088;2023-12-20T06:45:08;8.60;99.90
32217;DHT22;67098;51.140;4.088;2023-12-20T06:47:33;8.60;99.90
32217;DHT22;67098;51.140;4.088;2023-12-20T06:49:59;8.60;99.90
32217;DHT22;67098;51.140;4.088;2023-12-20T06:52:26;8.50;99.90
32217;DHT22;67098;51.140;4.088;2023-12-20T06:54:51;8.60;99.90
32217;DHT22;67098;51.140;4.088;2023-12-20T06:57:17;8.60;99.90
32217;DHT22;67098;51.140;4.088;2023-12-20T06:59:43;8.60;99.90
32217;DHT22;67098;51.140;4.088;2023-12-20T07:02:09;8.60;99.90
32217;DHT22;67098;51.140;4.088;2023-12-20T07:04:39;8.50;99.90
32217;DHT22;67098;51.140;4.088;2023-12-20T07:07:05;8.60;99.90
32217;DHT22;67098;51.140;4.088;2023-12-20T07:09:32;8.50;99.90
32217;DHT22;67098;51.140;4.088;2023-12-20T07:11:58;8.50;99.90
32217;DHT22;67098;51.140;4.088;2023-12-20T07:14:24;8.40;99.90
32217;DHT22;67098;51.140;4.088;2023-12-20T07:16:50;8.40;99.90
32217;DHT22;67098;51.140;4.088;2023-12-20T07:19:15;8.30;99.90
32217;DHT22;67098;51.140;4.088;2023-12-20T07:21:41;8.20;99.90
32217;DHT22;67098;51.140;4.088;2023-12-20T07:24:07;8.10;99.90
32217;DHT22;67098;51.140;4.088;2023-12-20T07:26:33;8.10;99.90
32217;DHT22;67098;51.140;4.088;2023-12-20T07:28:59;8.00;99.90
32217;DHT22;67098;51.140;4.088;2023-12-20T07:31:25;8.00;99.90
32217;DHT22;67098;51.140;4.088;2023-12-20T07:33:50;7.90;99.90
32217;DHT22;67098;51.140;4.088;2023-12-20T07:36:16;8.00;99.90
32217;DHT22;67098;51.140;4.088;2023-12-20T07:38:42;7.90;99.90
32217;DHT22;67098;51.140;4.088;2023-12-20T07:41:10;7.90;99.90
32217;DHT22;67098;51.140;4.088;2023-12-20T07:43:36;8.00;99.90
32217;DHT22;67098;51.140;4.088;2023-12-20T07:46:06;7.80;99.90
32217;DHT22;67098;51.140;4.088;2023-12-20T07:48:36;8.00;99.90
32217;DHT22;67098;51.140;4.088;2023-12-20T07:51:06;8.00;99.90
32217;DHT22;67098;51.140;4.088;2023-12-20T07:53:33;8.10;99.90
32217;DHT22;67098;51.140;4.088;2023-12-20T07:55:59;8.10;99.90
32217;DHT22;67098;51.140;4.088;2023-12-20T07:58:25;8.10;99.90
32217;DHT22;67098;51.140;4.088;2023-12-20T08:00:51;8.20;99.90
32217;DHT22;67098;51.140;4.088;2023-12-20T08:03:16;8.10;99.90
32217;DHT22;67098;51.140;4.088;2023-12-20T08:05:42;8.10;99.90
32217;DHT22;67098;51.140;4.088;2023-12-20T08:08:08;8.00;99.90
32217;DHT22;67098;51.140;4.088;2023-12-20T08:10:33;8.10;99.90
32217;DHT22;67098;51.140;4.088;2023-12-20T08:12:59;8.20;99.90
32217;DHT22;67098;51.140;4.088;2023-12-20T08:15:25;8.30;99.90
32217;DHT22;67098;51.140;4.088;2023-12-20T08:17:50;8.20;99.90
32217;DHT22;67098;51.140;4.088;2023-12-20T08:20:17;8.30;99.90
32217;DHT22;67098;51.140;4.088;2023-12-20T08:22:42;8.30;99.90
32217;DHT22;67098;51.140;4.088;2023-12-20T08:25:08;8.20;99.90
32217;DHT22;67098;51.140;4.088;2023-12-20T08:27:39;8.30;99.90
32217;DHT22;67098;51.140;4.088;2023-12-20T08:30:05;8.20;99.90
32217;DHT22;67098;51.140;4.088;2023-12-20T08:32:31;8.20;99.90
32217;DHT22;67098;51.140;4.088;2023-12-20T08:34:57;8.10;99.90
32217;DHT22;67098;51.140;4.088;2023-12-20T08:37:24;8.10;99.90
32217;DHT22;67098;51.140;4.088;2023-12-20T08:39:49;8.20;99.90
32217;DHT22;67098;51.140;4.088;2023-12-20T08:42:15;8.10;99.90
32217;DHT22;67098;51.140;4.088;2023-12-20T08:44:40;8.30;99.90
32217;DHT22;67098;51.140;4.088;2023-12-20T08:47:06;8.10;99.90
32217;DHT22;67098;51.140;4.088;2023-12-20T08:49:32;8.10;99.90
32217;DHT22;67098;51.140;4.088;2023-12-20T08:51:58;8.10;99.90
32217;DHT22;67098;51.140;4.088;2023-12-20T08:54:24;8.10;99.90
32217;DHT22;67098;51.140;4.088;2023-12-20T08:56:50;8.20;99.90
32217;DHT22;67098;51.140;4.088;2023-12-20T08:59:15;8.20;99.90
32217;DHT22;67098;51.140;4.088;2023-12-20T09:01:41;8.20;99.90
32217;DHT22;67098;51.140;4.088;2023-12-20T09:04:07;8.20;99.90
32217;DHT22;67098;51.140;4.088;2023-12-20T09:06:33;8.20;99.90
32217;DHT22;67098;51.140;4.088;2023-12-20T09:08:58;8.40;99.90
32217;DHT22;67098;51.140;4.088;2023-12-20T09:11:24;8.30;99.90
32217;DHT22;67098;51.140;4.088;2023-12-20T09:13:50;8.40;99.90
32217;DHT22;67098;51.140;4.088;2023-12-20T09:16:15;8.50;99.90
32217;DHT22;67098;51.140;4.088;2023-12-20T09:18:42;8.60;99.90
32217;DHT22;67098;51.140;4.088;2023-12-20T09:21:08;8.70;99.90
32217;DHT22;67098;51.140;4.088;2023-12-20T09:23:33;8.70;99.90
32217;DHT22;67098;51.140;4.088;2023-12-20T09:25:59;8.70;99.90
32217;DHT22;67098;51.140;4.088;2023-12-20T09:28:25;8.80;99.90
32217;DHT22;67098;51.140;4.088;2023-12-20T09:30:51;8.90;99.90
32217;DHT22;67098;51.140;4.088;2023-12-20T09:33:17;8.90;99.90
32217;DHT22;67098;51.140;4.088;2023-12-20T09:35:42;9.00;99.90
32217;DHT22;67098;51.140;4.088;2023-12-20T09:38:09;8.90;99.90
32217;DHT22;67098;51.140;4.088;2023-12-20T09:40:36;9.10;99.90
32217;DHT22;67098;51.140;4.088;2023-12-20T09:43:04;9.10;99.90
32217;DHT22;67098;51.140;4.088;2023-12-20T09:45:33;9.30;99.90
32217;DHT22;67098;51.140;4.088;2023-12-20T09:48:00;9.40;99.90
32217;DHT22;67098;51.140;4.088;2023-12-20T09:50:27;9.40;99.90
32217;DHT22;67098;51.140;4.088;2023-12-20T09:52:53;9.40;99.90
32217;DHT22;67098;51.140;4.088;2023-12-20T09:55:21;9.40;99.90
32217;DHT22;67098;51.140;4.088;2023-12-20T09:57:48;9.40;99.90
32217;DHT22;67098;51.140;4.088;2023-12-20T10:00:14;9.60;99.90
32217;DHT22;67098;51.140;4.088;2023-12-20T10:02:50;9.60;99.90
32217;DHT22;67098;51.140;4.088;2023-12-20T10:05:17;9.70;99.90
32217;DHT22;67098;51.140;4.088;2023-12-20T10:07:49;9.70;99.90
32217;DHT22;67098;51.140;4.088;2023-12-20T10:10:14;9.70;99.90
32217;DHT22;67098;51.140;4.088;2023-12-20T10:12:40;9.70;99.90
32217;DHT22;67098;51.140;4.088;2023-12-20T10:15:06;9.70;99.90
32217;DHT22;67098;51.140;4.088;2023-12-20T10:17:32;9.80;99.80
32217;DHT22;67098;51.140;4.088;2023-12-20T10:19:58;9.70;99.90
32217;DHT22;67098;51.140;4.088;2023-12-20T10:22:24;9.60;99.90
32217;DHT22;67098;51.140;4.088;2023-12-20T10:24:50;9.80;99.90
32217;DHT22;67098;51.140;4.088;2023-12-20T10:27:18;9.90;99.80
32217;DHT22;67098;51.140;4.088;2023-12-20T10:29:45;9.80;99.90
32217;DHT22;67098;51.140;4.088;2023-12-20T10:32:26;9.90;99.80
32217;DHT22;67098;51.140;4.088;2023-12-20T10:34:54;10.00;99.70
32217;DHT22;67098;51.140;4.088;2023-12-20T10:37:20;9.90;99.70
32217;DHT22;67098;51.140;4.088;2023-12-20T10:39:54;9.80;99.90
32217;DHT22;67098;51.140;4.088;2023-12-20T10:42:26;9.80;99.90
32217;DHT22;67098;51.140;4.088;2023-12-20T10:44:52;9.90;99.90
32217;DHT22;67098;51.140;4.088;2023-12-20T10:47:20;9.90;99.80
32217;DHT22;67098;51.140;4.088;2023-12-20T10:49:46;9.90;99.90
32217;DHT22;67098;51.140;4.088;2023-12-20T10:52:12;9.90;99.90
32217;DHT22;67098;51.140;4.088;2023-12-20T10:54:41;9.90;99.90
32217;DHT22;67098;51.140;4.088;2023-12-20T10:57:07;9.80;99.90
32217;DHT22;67098;51.140;4.088;2023-12-20T10:59:33;9.80;99.90
32217;DHT22;67098;51.140;4.088;2023-12-20T11:02:02;9.80;99.90
32217;DHT22;67098;51.140;4.088;2023-12-20T11:04:50;9.80;99.90
32217;DHT22;67098;51.140;4.088;2023-12-20T11:07:46;9.80;99.90
32217;DHT22;67098;51.140;4.088;2023-12-20T11:10:31;9.90;99.90
32217;DHT22;67098;51.140;4.088;2023-12-20T11:13:08;9.80;99.90
32217;DHT22;67098;51.140;4.088;2023-12-20T11:15:36;9.80;99.90
32217;DHT22;67098;51.140;4.088;2023-12-20T11:18:02;9.80;99.90
32217;DHT22;67098;51.140;4.088;2023-12-20T11:20:40;9.90;99.90
32217;DHT22;67098;51.140;4.088;2023-12-20T11:23:07;10.00;99.90
32217;DHT22;67098;51.140;4.088;2023-12-20T11:25:53;9.90;99.90
32217;DHT22;67098;51.140;4.088;2023-12-20T11:28:23;9.90;99.90
32217;DHT22;67098;51.140;4.088;2023-12-20T11:30:54;9.80;99.90
32217;DHT22;67098;51.140;4.088;2023-12-20T11:33:25;9.80;99.90
32217;DHT22;67098;51.140;4.088;2023-12-20T11:35:51;9.90;99.90
32217;DHT22;67098;51.140;4.088;2023-12-20T11:38:19;10.00;99.90
32217;DHT22;67098;51.140;4.088;2023-12-20T11:40:48;9.90;99.90
32217;DHT22;67098;51.140;4.088;2023-12-20T11:43:35;9.90;99.90
32217;DHT22;67098;51.140;4.088;2023-12-20T11:46:05;9.90;99.90
32217;DHT22;67098;51.140;4.088;2023-12-20T11:48:32;9.90;99.90
32217;DHT22;67098;51.140;4.088;2023-12-20T11:50:58;10.00;99.90
32217;DHT22;67098;51.140;4.088;2023-12-20T11:53:24;10.10;99.90
32217;DHT22;67098;51.140;4.088;2023-12-20T11:55:50;10.10;99.90
32217;DHT22;67098;51.140;4.088;2023-12-20T11:58:16;10.20;99.90
32217;DHT22;67098;51.140;4.088;2023-12-20T12:00:42;10.10;99.90
32217;DHT22;67098;51.140;4.088;2023-12-20T12:03:09;10.20;99.90
32217;DHT22;67098;51.140;4.088;2023-12-20T12:05:35;10.30;99.90
32217;DHT22;67098;51.140;4.088;2023-12-20T12:08:02;10.40;99.90
32217;DHT22;67098;51.140;4.088;2023-12-20T12:10:28;10.30;99.90
32217;DHT22;67098;51.140;4.088;2023-12-20T12:12:54;10.30;99.90
32217;DHT22;67098;51.140;4.088;2023-12-20T12:15:20;10.30;99.90
32217;DHT22;67098;51.140;4.088;2023-12-20T12:17:56;10.30;99.90
32217;DHT22;67098;51.140;4.088;2023-12-20T12:20:23;10.20;99.90
32217;DHT22;67098;51.140;4.088;2023-12-20T12:23:00;10.20;99.90
32217;DHT22;67098;51.140;4.088;2023-12-20T12:25:26;10.20;99.90
32217;DHT22;67098;51.140;4.088;2023-12-20T12:27:53;10.20;99.90
32217;DHT22;67098;51.140;4.088;2023-12-20T12:30:18;10.20;99.90
32217;DHT22;67098;51.140;4.088;2023-12-20T12:32:44;10.20;99.90
32217;DHT22;67098;51.140;4.088;2023-12-20T12:35:10;10.20;99.90
32217;DHT22;67098;51.140;4.088;2023-12-20T12:37:40;10.20;99.90
32217;DHT22;67098;51.140;4.088;2023-12-20T12:40:10;10.10;99.90
32217;DHT22;67098;51.140;4.088;2023-12-20T12:42:37;10.30;99.90
32217;DHT22;67098;51.140;4.088;2023-12-20T12:45:03;10.40;99.90
32217;DHT22;67098;51.140;4.088;2023-12-20T12:47:28;10.50;99.90
32217;DHT22;67098;51.140;4.088;2023-12-20T12:49:54;10.50;99.90
32217;DHT22;67098;51.140;4.088;2023-12-20T12:52:20;10.50;99.90
32217;DHT22;67098;51.140;4.088;2023-12-20T12:54:46;10.50;99.90
32217;DHT22;67098;51.140;4.088;2023-12-20T12:57:13;10.40;99.90
32217;DHT22;67098;51.140;4.088;2023-12-20T12:59:39;10.30;99.90
32217;DHT22;67098;51.140;4.088;2023-12-20T13:02:05;10.40;99.90
32217;DHT22;67098;51.140;4.088;2023-12-20T13:04:31;10.50;99.90
32217;DHT22;67098;51.140;4.088;2023-12-20T13:06:56;10.70;99.90
32217;DHT22;67098;51.140;4.088;2023-12-20T13:09:23;10.60;99.90
32217;DHT22;67098;51.140;4.088;2023-12-20T13:11:48;10.70;99.90
32217;DHT22;67098;51.140;4.088;2023-12-20T13:14:14;10.70;99.90
32217;DHT22;67098;51.140;4.088;2023-12-20T13:16:42;10.70;99.90
32217;DHT22;67098;51.140;4.088;2023-12-20T13:19:08;10.90;99.90
32217;DHT22;67098;51.140;4.088;2023-12-20T13:21:34;10.70;99.90
32217;DHT22;67098;51.140;4.088;2023-12-20T13:23:59;10.70;99.90
32217;DHT22;67098;51.140;4.088;2023-12-20T13:26:25;10.80;99.90
32217;DHT22;67098;51.140;4.088;2023-12-20T13:28:51;10.80;99.90
32217;DHT22;67098;51.140;4.088;2023-12-20T13:31:16;10.80;99.90
32217;DHT22;67098;51.140;4.088;2023-12-20T13:33:42;10.90;99.90
32217;DHT22;67098;51.140;4.088;2023-12-20T13:36:08;10.80;99.90
32217;DHT22;67098;51.140;4.088;2023-12-20T13:38:34;10.90;99.90
32217;DHT22;67098;51.140;4.088;2023-12-20T13:40:59;10.80;99.90
32217;DHT22;67098;51.140;4.088;2023-12-20T13:43:25;10.70;99.90
32217;DHT22;67098;51.140;4.088;2023-12-20T13:45:51;10.90;99.90
32217;DHT22;67098;51.140;4.088;2023-12-20T13:48:17;10.80;99.90
32217;DHT22;67098;51.140;4.088;2023-12-20T13:50:43;10.70;99.90
32217;DHT22;67098;51.140;4.088;2023-12-20T13:53:09;10.70;99.90
32217;DHT22;67098;51.140;4.088;2023-12-20T13:55:35;10.60;99.90
32217;DHT22;67098;51.140;4.088;2023-12-20T13:58:00;10.60;99.90
32217;DHT22;67098;51.140;4.088;2023-12-20T14:00:26;10.60;99.90
32217;DHT22;67098;51.140;4.088;2023-12-20T14:02:52;10.60;99.90
32217;DHT22;67098;51.140;4.088;2023-12-20T14:05:17;10.70;99.90
32217;DHT22;67098;51.140;4.088;2023-12-20T14:07:43;10.60;99.90
32217;DHT22;67098;51.140;4.088;2023-12-20T14:10:11;10.70;99.90
32217;DHT22;67098;51.140;4.088;2023-12-20T14:12:38;10.70;99.90
32217;DHT22;67098;51.140;4.088;2023-12-20T14:15:04;10.80;99.90
32217;DHT22;67098;51.140;4.088;2023-12-20T14:17:34;10.80;99.90
32217;DHT22;67098;51.140;4.088;2023-12-20T14:20:00;10.80;99.90
32217;DHT22;67098;51.140;4.088;2023-12-20T14:22:26;10.90;99.90
32217;DHT22;67098;51.140;4.088;2023-12-20T14:24:54;11.00;99.90
32217;DHT22;67098;51.140;4.088;2023-12-20T14:27:20;10.80;99.90
32217;DHT22;67098;51.140;4.088;2023-12-20T14:29:48;10.80;99.90
32217;DHT22;67098;51.140;4.088;2023-12-20T14:32:14;10.90;99.90
32217;DHT22;67098;51.140;4.088;2023-12-20T14:34:41;10.90;99.90
32217;DHT22;67098;51.140;4.088;2023-12-20T14:37:06;11.10;99.90
32217;DHT22;67098;51.140;4.088;2023-12-20T14:39:32;11.00;99.90
32217;DHT22;67098;51.140;4.088;2023-12-20T14:41:58;10.90;99.90
32217;DHT22;67098;51.140;4.088;2023-12-20T14:44:23;11.00;99.90
32217;DHT22;67098;51.140;4.088;2023-12-20T14:46:50;10.90;99.90
32217;DHT22;67098;51.140;4.088;2023-12-20T14:49:16;11.10;99.90
32217;DHT22;67098;51.140;4.088;2023-12-20T14:51:45;10.90;99.90
32217;DHT22;67098;51.140;4.088;2023-12-20T14:54:13;10.80;99.90
32217;DHT22;67098;51.140;4.088;2023-12-20T14:56:39;11.00;99.90
32217;DHT22;67098;51.140;4.088;2023-12-20T14:59:05;11.10;99.90
32217;DHT22;67098;51.140;4.088;2023-12-20T15:01:31;11.00;99.90
32217;DHT22;67098;51.140;4.088;2023-12-20T15:04:00;10.90;99.90
32217;DHT22;67098;51.140;4.088;2023-12-20T15:06:26;10.90;99.90
32217;DHT22;67098;51.140;4.088;2023-12-20T15:08:51;11.10;99.80
32217;DHT22;67098;51.140;4.088;2023-12-20T15:11:17;11.00;99.90
32217;DHT22;67098;51.140;4.088;2023-12-20T15:13:43;10.90;99.90
32217;DHT22;67098;51.140;4.088;2023-12-20T15:16:09;10.80;99.90
32217;DHT22;67098;51.140;4.088;2023-12-20T15:18:35;10.90;99.90
32217;DHT22;67098;51.140;4.088;2023-12-20T15:21:01;10.80;99.90
32217;DHT22;67098;51.140;4.088;2023-12-20T15:23:26;10.80;99.90
32217;DHT22;67098;51.140;4.088;2023-12-20T15:25:54;10.80;99.90
32217;DHT22;67098;51.140;4.088;2023-12-20T15:28:19;10.80;99.90
32217;DHT22;67098;51.140;4.088;2023-12-20T15:30:45;10.80;99.90
32217;DHT22;67098;51.140;4.088;2023-12-20T15:33:11;10.70;99.90
32217;DHT22;67098;51.140;4.088;2023-12-20T15:35:36;10.70;99.90
32217;DHT22;67098;51.140;4.088;2023-12-20T15:38:02;10.80;99.90